Time;durP1;ratioP1;P1;durP2;ratioP2;P2;SDS_P1;SDS_P2;PMS_P1;PMS_P2;Temp;Humidity;BMP_temperature;BMP_pressure;BME280_temperature;BME280_humidity;BME280_pressure;Samples;Min_cycle;Max_cycle;Signal;HPM_P1;HPM_P2
2022/04/14 00:01:33;;;;;;;3.43;2.73;;;22.60;51.30;;;;;;4993417;28;20444;-82
2022/04/14 00:04:01;;;;;;;2.70;2.47;;;22.60;51.30;;;;;;4995204;28;20424;-82
2022/04/14 00:06:31;;;;;;;2.37;2.17;;;22.60;51.30;;;;;;4963568;28;20436;-83
2022/04/14 00:09:01;;;;;;;2.90;2.30;;;22.60;51.40;;;;;;4980225;28;20429;-83
2022/04/14 00:11:33;;;;;;;3.23;2.57;;;22.60;51.40;;;;;;4995882;28;20432;-83
2022/04/14 00:14:00;;;;;;;4.07;2.60;;;22.60;51.30;;;;;;4995810;28;20421;-82
2022/04/14 00:16:26;;;;;;;2.87;2.27;;;22.60;51.40;;;;;;4995898;28;20772;-82
2022/04/14 00:19:07;;;;;;;3.07;2.20;;;22.60;51.40;;;;;;4995641;28;20481;-82
2022/04/14 00:21:38;;;;;;;3.57;2.47;;;22.60;51.40;;;;;;5011374;28;20417;-82
2022/04/14 00:24:05;;;;;;;2.77;2.33;;;22.60;51.40;;;;;;5019737;28;20425;-83
2022/04/14 00:26:31;;;;;;;3.10;2.90;;;22.60;51.40;;;;;;5018774;28;20415;-82
2022/04/14 00:28:57;;;;;;;3.30;2.33;;;22.60;51.40;;;;;;5035906;28;20441;-82
2022/04/14 00:31:25;;;;;;;3.00;1.83;;;22.60;51.40;;;;;;5034545;28;20458;-82
2022/04/14 00:33:50;;;;;;;2.90;2.37;;;22.60;51.40;;;;;;5018648;28;20412;-82
2022/04/14 00:36:18;;;;;;;2.50;2.20;;;22.60;51.40;;;;;;5035196;28;20442;-82
2022/04/14 00:38:45;;;;;;;3.10;2.57;;;22.60;51.40;;;;;;5036195;28;20411;-82
2022/04/14 00:41:12;;;;;;;2.50;2.17;;;22.60;51.40;;;;;;4986113;28;20483;-82
2022/04/14 00:43:43;;;;;;;2.53;2.10;;;22.60;51.40;;;;;;5019158;28;20434;-82
2022/04/14 00:46:11;;;;;;;2.90;2.30;;;22.60;51.30;;;;;;5014847;28;20427;-82
2022/04/14 00:48:38;;;;;;;2.33;2.00;;;22.60;51.40;;;;;;5034125;28;20415;-83
2022/04/14 00:51:07;;;;;;;2.73;2.53;;;22.60;51.40;;;;;;5017867;28;20467;-83
2022/04/14 00:53:34;;;;;;;2.50;2.30;;;22.60;51.40;;;;;;5033187;28;20431;-82
2022/04/14 00:56:00;;;;;;;3.03;2.43;;;22.60;51.40;;;;;;5034871;28;20495;-82
2022/04/14 00:58:29;;;;;;;2.63;2.20;;;22.60;51.40;;;;;;5033728;28;20411;-82
2022/04/14 01:00:59;;;;;;;2.23;1.90;;;22.60;51.40;;;;;;5033758;28;20869;-82
2022/04/14 01:03:25;;;;;;;2.50;2.30;;;22.60;51.40;;;;;;5035531;28;20415;-82
2022/04/14 01:05:55;;;;;;;2.93;2.40;;;22.60;51.40;;;;;;5035257;28;20494;-82
2022/04/14 01:08:29;;;;;;;2.60;2.20;;;22.60;51.40;;;;;;5018304;28;20523;-82
2022/04/14 01:10:57;;;;;;;3.70;2.47;;;22.60;51.40;;;;;;5019975;28;20454;-81
2022/04/14 01:13:23;;;;;;;2.50;2.23;;;22.60;51.40;;;;;;5018287;28;20439;-82
2022/04/14 01:15:49;;;;;;;2.53;2.33;;;22.60;51.40;;;;;;5034974;28;20392;-82
2022/04/14 01:18:17;;;;;;;2.87;2.37;;;22.60;51.40;;;;;;5035295;28;20407;-82
2022/04/14 01:20:46;;;;;;;2.70;2.10;;;22.60;51.40;;;;;;5035534;28;20412;-82
2022/04/14 01:23:15;;;;;;;2.63;1.80;;;22.60;51.40;;;;;;5017936;28;20438;-82
2022/04/14 01:25:42;;;;;;;2.97;2.40;;;22.60;51.50;;;;;;5002198;28;20439;-82
2022/04/14 01:28:08;;;;;;;3.20;2.10;;;22.60;51.40;;;;;;5034963;28;20442;-82
2022/04/14 01:30:40;;;;;;;2.80;2.50;;;22.60;51.50;;;;;;5035285;28;20471;-82
2022/04/14 01:33:09;;;;;;;2.10;2.00;;;22.60;51.40;;;;;;5018851;28;20418;-81
2022/04/14 01:35:38;;;;;;;2.13;1.93;;;22.60;51.40;;;;;;5035351;28;20848;-82
2022/04/14 01:38:12;;;;;;;2.67;2.27;;;22.60;51.40;;;;;;5034651;28;20426;-82
2022/04/14 01:40:38;;;;;;;2.33;2.10;;;22.60;51.40;;;;;;5034415;28;20420;-82
2022/04/14 01:43:06;;;;;;;2.27;2.07;;;22.60;51.40;;;;;;5034509;28;20425;-83
2022/04/14 01:46:08;;;;;;;2.87;2.30;;;22.60;51.40;;;;;;5002257;28;20188;-82
2022/04/14 01:48:41;;;;;;;2.00;1.80;;;22.60;51.40;;;;;;5034461;28;20395;-82
2022/04/14 01:51:08;;;;;;;2.10;1.90;;;22.60;51.40;;;;;;5017630;28;20455;-82
2022/04/14 01:53:34;;;;;;;2.77;2.27;;;22.60;51.50;;;;;;5017205;28;20415;-82
2022/04/14 01:56:00;;;;;;;2.33;2.00;;;22.60;51.50;;;;;;5034987;28;20228;-82
2022/04/14 01:58:26;;;;;;;3.13;2.37;;;22.60;51.50;;;;;;5017878;28;20203;-81
2022/04/14 02:00:53;;;;;;;2.07;1.87;;;22.60;51.50;;;;;;5018089;28;20181;-82
2022/04/14 02:03:19;;;;;;;2.87;2.27;;;22.60;51.50;;;;;;5030763;28;20403;-82
2022/04/14 02:05:47;;;;;;;2.70;2.50;;;22.60;51.40;;;;;;5034598;28;20407;-82
2022/04/14 02:08:15;;;;;;;2.43;2.07;;;22.60;51.50;;;;;;5034219;28;20440;-82
2022/04/14 02:10:41;;;;;;;2.60;2.40;;;22.60;51.40;;;;;;5016912;28;20479;-82
2022/04/14 02:13:09;;;;;;;2.13;1.93;;;22.60;51.40;;;;;;5017177;28;20534;-82
2022/04/14 02:15:35;;;;;;;2.50;2.00;;;22.60;51.40;;;;;;5034029;28;20411;-83
2022/04/14 02:18:01;;;;;;;2.50;2.03;;;22.60;51.40;;;;;;5017757;28;20436;-83
2022/04/14 02:20:27;;;;;;;2.20;2.00;;;22.60;51.40;;;;;;5033222;28;20423;-83
2022/04/14 02:22:53;;;;;;;1.93;1.83;;;22.60;51.40;;;;;;5015086;28;20427;-83
2022/04/14 02:25:22;;;;;;;1.90;1.70;;;22.60;51.40;;;;;;5030884;28;20520;-83
2022/04/14 02:27:48;;;;;;;1.90;1.70;;;22.60;51.40;;;;;;5033311;28;20179;-83
2022/04/14 02:30:14;;;;;;;4.40;2.93;;;22.60;51.40;;;;;;5031289;28;20482;-83
2022/04/14 02:32:40;;;;;;;2.50;2.00;;;22.60;51.40;;;;;;5031667;28;20199;-83
2022/04/14 02:35:07;;;;;;;2.50;2.23;;;22.60;51.50;;;;;;5033928;28;20494;-83
2022/04/14 02:37:33;;;;;;;2.47;1.90;;;22.60;51.40;;;;;;5030813;28;20192;-83
2022/04/14 02:40:00;;;;;;;2.20;2.00;;;22.60;51.40;;;;;;5033589;28;20423;-83
2022/04/14 02:42:26;;;;;;;5.37;1.70;;;22.60;51.40;;;;;;5016646;28;20471;-83
2022/04/14 02:44:52;;;;;;;2.30;2.10;;;22.60;51.40;;;;;;5015977;28;20428;-83
2022/04/14 02:47:24;;;;;;;2.23;2.00;;;22.60;51.40;;;;;;5034473;28;20473;-82
2022/04/14 02:49:53;;;;;;;2.40;2.20;;;22.60;51.40;;;;;;5016169;28;20451;-82
2022/04/14 02:52:19;;;;;;;2.73;2.53;;;22.60;51.40;;;;;;5033157;28;20463;-81
2022/04/14 02:54:48;;;;;;;2.53;1.90;;;22.60;51.40;;;;;;5016550;28;20423;-82
2022/04/14 02:57:14;;;;;;;2.20;1.97;;;22.60;51.40;;;;;;5017448;28;20167;-82
2022/04/14 02:59:46;;;;;;;2.70;2.00;;;22.60;51.40;;;;;;5015704;28;20419;-82
2022/04/14 03:02:12;;;;;;;2.00;1.80;;;22.60;51.40;;;;;;5034091;28;20430;-81
2022/04/14 03:04:39;;;;;;;2.07;1.73;;;22.60;51.40;;;;;;5032755;28;20905;-82
2022/04/14 03:07:07;;;;;;;2.60;2.40;;;22.60;51.40;;;;;;5033864;28;20199;-82
2022/04/14 03:09:35;;;;;;;2.33;1.90;;;22.60;51.40;;;;;;5017314;28;20515;-83
2022/04/14 03:12:01;;;;;;;2.63;2.20;;;22.60;51.40;;;;;;5017067;28;20526;-83
2022/04/14 03:14:30;;;;;;;2.20;1.80;;;22.60;51.40;;;;;;5034896;28;20408;-83
2022/04/14 03:16:57;;;;;;;2.30;1.97;;;22.60;51.40;;;;;;5034887;28;20446;-83
2022/04/14 03:19:23;;;;;;;2.53;2.13;;;22.60;51.40;;;;;;5033198;28;20423;-83
2022/04/14 03:21:51;;;;;;;1.70;1.50;;;22.60;51.40;;;;;;5034527;28;20415;-83
2022/04/14 03:24:16;;;;;;;2.23;1.90;;;22.60;51.40;;;;;;5000752;28;20447;-83
2022/04/14 03:26:44;;;;;;;1.63;1.53;;;22.60;51.40;;;;;;5016741;28;20451;-83
2022/04/14 03:29:09;;;;;;;1.73;1.63;;;22.60;51.40;;;;;;5016852;28;20189;-82
2022/04/14 03:31:35;;;;;;;2.57;2.17;;;22.60;51.40;;;;;;5033687;28;20459;-83
2022/04/14 03:34:01;;;;;;;1.83;1.70;;;22.60;51.40;;;;;;5033811;28;20420;-83
2022/04/14 03:36:29;;;;;;;2.07;1.87;;;22.60;51.40;;;;;;5034204;28;20502;-83
2022/04/14 03:38:55;;;;;;;2.47;1.90;;;22.60;51.40;;;;;;5017046;28;20433;-83
2022/04/14 03:41:24;;;;;;;2.00;1.80;;;22.60;51.40;;;;;;5035736;28;20415;-83
2022/04/14 03:43:50;;;;;;;2.23;2.00;;;22.60;51.50;;;;;;5020686;28;20478;-83
2022/04/14 03:46:18;;;;;;;1.73;1.50;;;22.60;51.40;;;;;;5037242;28;20487;-83
2022/04/14 03:48:44;;;;;;;2.10;1.80;;;22.60;51.50;;;;;;5037270;28;20489;-82
2022/04/14 03:51:14;;;;;;;2.17;1.97;;;22.60;51.40;;;;;;5019541;28;20470;-83
2022/04/14 03:53:41;;;;;;;3.47;2.00;;;22.60;51.40;;;;;;5036979;28;20180;-82
2022/04/14 03:56:07;;;;;;;1.87;1.77;;;22.60;51.40;;;;;;5037316;28;20457;-82
2022/04/14 03:58:34;;;;;;;2.20;1.70;;;22.60;51.40;;;;;;5020583;28;20431;-83
2022/04/14 04:01:00;;;;;;;2.07;1.80;;;22.60;51.40;;;;;;5036239;28;20427;-83
2022/04/14 04:03:26;;;;;;;2.00;1.70;;;22.60;51.40;;;;;;5019538;28;20638;-83
2022/04/14 04:05:55;;;;;;;1.80;1.70;;;22.60;51.50;;;;;;5019728;28;20503;-83
2022/04/14 04:08:22;;;;;;;1.97;1.77;;;22.60;51.40;;;;;;5035579;28;20422;-83
2022/04/14 04:10:52;;;;;;;3.00;2.70;;;22.60;51.40;;;;;;5019428;28;20498;-83
2022/04/14 04:13:18;;;;;;;1.80;1.70;;;22.60;51.40;;;;;;5036743;28;20387;-82
2022/04/14 04:15:44;;;;;;;1.80;1.57;;;22.50;51.40;;;;;;5019063;28;20790;-83
2022/04/14 04:18:11;;;;;;;1.70;1.60;;;22.60;51.50;;;;;;5019313;28;20513;-82
2022/04/14 04:20:38;;;;;;;2.23;2.00;;;22.60;51.50;;;;;;5036742;28;20419;-83
2022/04/14 04:23:08;;;;;;;1.80;1.60;;;22.60;51.50;;;;;;5035838;28;20439;-83
2022/04/14 04:25:34;;;;;;;2.50;2.20;;;22.60;51.50;;;;;;5019207;28;20415;-83
2022/04/14 04:27:59;;;;;;;2.23;1.70;;;22.60;51.50;;;;;;4998712;28;20439;-83
2022/04/14 04:30:25;;;;;;;1.90;1.80;;;22.60;51.50;;;;;;5012302;28;20460;-83
2022/04/14 04:32:57;;;;;;;1.60;1.47;;;22.60;51.50;;;;;;5014685;28;20532;-83
2022/04/14 04:35:23;;;;;;;2.17;1.97;;;22.60;51.50;;;;;;5027771;28;20237;-81
2022/04/14 04:37:50;;;;;;;2.20;1.77;;;22.60;51.50;;;;;;5014030;28;20446;-83
2022/04/14 04:40:18;;;;;;;2.10;1.90;;;22.60;51.50;;;;;;5013438;28;20499;-82
2022/04/14 04:42:47;;;;;;;2.03;1.73;;;22.60;51.50;;;;;;5031482;28;20435;-82
2022/04/14 04:45:13;;;;;;;1.70;1.50;;;22.60;51.50;;;;;;5013638;28;20416;-82
2022/04/14 04:47:40;;;;;;;2.03;1.83;;;22.60;51.50;;;;;;5011257;28;20467;-82
2022/04/14 04:50:08;;;;;;;2.67;2.10;;;22.60;51.50;;;;;;5033128;28;20439;-82
2022/04/14 04:52:35;;;;;;;2.30;1.77;;;22.60;51.60;;;;;;5016413;28;20815;-82
2022/04/14 04:55:01;;;;;;;2.10;1.90;;;22.60;51.50;;;;;;5001576;28;20453;-82
2022/04/14 04:57:28;;;;;;;2.37;2.00;;;22.60;51.60;;;;;;5018105;28;20427;-82
2022/04/14 04:59:54;;;;;;;2.20;1.80;;;22.60;51.50;;;;;;5031620;28;20439;-84
2022/04/14 05:02:20;;;;;;;2.10;1.90;;;22.60;51.50;;;;;;5031202;28;21030;-84
2022/04/14 05:04:47;;;;;;;1.87;1.77;;;22.60;51.50;;;;;;5031796;28;20419;-83
2022/04/14 05:07:13;;;;;;;1.93;1.73;;;22.60;51.50;;;;;;5014042;28;20244;-84
2022/04/14 05:09:39;;;;;;;2.30;1.77;;;22.60;51.50;;;;;;5012352;28;20449;-82
2022/04/14 05:12:05;;;;;;;1.80;1.70;;;22.60;51.50;;;;;;5028365;28;20538;-82
2022/04/14 05:14:31;;;;;;;2.33;2.10;;;22.60;51.50;;;;;;5009117;28;20726;-82
2022/04/14 05:16:57;;;;;;;2.17;1.80;;;22.60;51.50;;;;;;5009905;28;20426;-82
2022/04/14 05:19:23;;;;;;;2.00;1.80;;;22.60;51.50;;;;;;5011806;28;20200;-82
2022/04/14 05:21:49;;;;;;;1.90;1.70;;;22.60;51.50;;;;;;5014723;28;20188;-82
2022/04/14 05:24:15;;;;;;;1.83;1.73;;;22.60;51.50;;;;;;5011259;28;20183;-83
2022/04/14 05:26:41;;;;;;;2.00;1.67;;;22.60;51.50;;;;;;5011085;28;20184;-83
2022/04/14 05:29:09;;;;;;;1.73;1.60;;;22.70;51.50;;;;;;5024306;28;20470;-82
2022/04/14 05:31:35;;;;;;;1.77;1.67;;;22.70;51.50;;;;;;5012154;28;20576;-82
2022/04/14 05:34:01;;;;;;;2.00;1.80;;;22.70;51.50;;;;;;5031145;28;20427;-82
2022/04/14 05:36:26;;;;;;;2.77;2.00;;;22.70;51.50;;;;;;5011567;28;20430;-82
2022/04/14 05:38:52;;;;;;;2.40;1.93;;;22.70;51.50;;;;;;5029737;28;20196;-81
2022/04/14 05:41:18;;;;;;;2.47;1.60;;;22.70;51.50;;;;;;5013560;28;20180;-82
2022/04/14 05:43:45;;;;;;;2.10;1.90;;;22.70;51.50;;;;;;5029882;28;20181;-82
2022/04/14 05:46:12;;;;;;;1.60;1.43;;;22.70;51.50;;;;;;5030705;28;20182;-84
2022/04/14 05:48:38;;;;;;;1.70;1.60;;;22.70;51.50;;;;;;5013927;28;20498;-83
2022/04/14 05:51:05;;;;;;;2.50;1.90;;;22.70;51.50;;;;;;5013339;28;20486;-84
2022/04/14 05:53:30;;;;;;;2.10;1.90;;;22.70;51.50;;;;;;5031935;28;20176;-84
2022/04/14 05:55:56;;;;;;;2.10;1.70;;;22.70;51.50;;;;;;5014637;28;20458;-83
2022/04/14 05:58:22;;;;;;;2.20;2.00;;;22.70;51.50;;;;;;5014549;28;20184;-83
2022/04/14 06:00:48;;;;;;;2.03;1.83;;;22.70;51.50;;;;;;5014229;28;20200;-83
2022/04/14 06:03:14;;;;;;;2.00;1.73;;;22.70;51.50;;;;;;5013625;28;20203;-83
2022/04/14 06:05:40;;;;;;;3.07;1.77;;;22.70;51.50;;;;;;5014767;28;20216;-84
2022/04/14 06:08:06;;;;;;;2.37;1.77;;;22.70;51.50;;;;;;5013866;28;20458;-84
2022/04/14 06:10:32;;;;;;;1.93;1.80;;;22.70;51.50;;;;;;5031557;28;20283;-84
2022/04/14 06:12:58;;;;;;;1.67;1.30;;;22.70;51.50;;;;;;5031296;28;20423;-84
2022/04/14 06:15:26;;;;;;;2.50;2.30;;;22.70;51.50;;;;;;5031270;28;20502;-83
2022/04/14 06:17:52;;;;;;;2.20;1.93;;;22.70;51.50;;;;;;5013573;28;20215;-83
2022/04/14 06:20:18;;;;;;;2.80;1.97;;;22.70;51.50;;;;;;5013960;28;20423;-83
2022/04/14 06:22:45;;;;;;;2.20;2.00;;;22.70;51.50;;;;;;5014072;28;20518;-84
2022/04/14 06:25:13;;;;;;;2.07;1.87;;;22.70;51.50;;;;;;5014020;28;20991;-83
2022/04/14 06:27:45;;;;;;;2.30;1.93;;;22.70;51.50;;;;;;5014185;28;20465;-83
2022/04/14 06:30:13;;;;;;;2.50;2.07;;;22.70;51.50;;;;;;5007423;28;20424;-83
2022/04/14 06:32:39;;;;;;;2.13;1.73;;;22.70;51.50;;;;;;4995477;28;20420;-84
2022/04/14 06:35:09;;;;;;;2.10;1.73;;;22.70;51.50;;;;;;5012073;28;20408;-84
2022/04/14 06:37:35;;;;;;;1.83;1.73;;;22.70;51.50;;;;;;4994949;28;20153;-83
2022/04/14 06:40:03;;;;;;;2.50;1.77;;;22.70;51.50;;;;;;5011896;28;20455;-84
2022/04/14 06:42:29;;;;;;;3.07;2.10;;;22.70;51.50;;;;;;5011492;28;20406;-84
2022/04/14 06:45:01;;;;;;;2.70;1.87;;;22.70;51.50;;;;;;4995150;28;20420;-83
2022/04/14 06:47:27;;;;;;;2.50;1.70;;;22.70;51.50;;;;;;4994654;28;20466;-83
2022/04/14 06:49:54;;;;;;;2.07;1.87;;;22.70;51.50;;;;;;5010922;28;20420;-83
2022/04/14 06:52:20;;;;;;;2.47;2.00;;;22.70;51.50;;;;;;5011365;28;20464;-84
2022/04/14 06:54:46;;;;;;;2.20;2.00;;;22.70;51.50;;;;;;4994089;28;20439;-83
2022/04/14 06:57:12;;;;;;;2.10;1.80;;;22.70;51.50;;;;;;4994318;28;20503;-84
2022/04/14 06:59:38;;;;;;;1.97;1.77;;;22.70;51.50;;;;;;4994722;28;20511;-83
2022/04/14 07:02:04;;;;;;;3.50;2.23;;;22.70;51.50;;;;;;5023210;28;20188;-84
2022/04/14 07:04:30;;;;;;;2.70;2.47;;;22.70;51.50;;;;;;5014952;28;20180;-83
2022/04/14 07:06:56;;;;;;;2.33;2.13;;;22.70;51.50;;;;;;5014272;28;20411;-83
2022/04/14 07:09:24;;;;;;;2.03;1.83;;;22.70;51.50;;;;;;5013716;28;20207;-83
2022/04/14 07:11:50;;;;;;;2.00;1.70;;;22.70;51.50;;;;;;4998329;28;20211;-83
2022/04/14 07:14:18;;;;;;;2.20;2.00;;;22.70;51.50;;;;;;5031489;28;20434;-83
2022/04/14 07:16:44;;;;;;;2.70;1.90;;;22.70;51.50;;;;;;5017871;28;20411;-83
2022/04/14 07:19:10;;;;;;;1.70;1.60;;;22.70;51.50;;;;;;5035431;28;20425;-83
2022/04/14 07:21:35;;;;;;;2.20;1.60;;;22.70;51.50;;;;;;5017229;28;20172;-83
2022/04/14 07:24:01;;;;;;;2.37;1.90;;;22.70;51.10;;;;;;5017361;28;20275;-83
2022/04/14 07:26:27;;;;;;;2.60;1.83;;;22.70;51.50;;;;;;5034767;28;20179;-83
2022/04/14 07:28:53;;;;;;;2.00;1.80;;;22.70;52.10;;;;;;5017638;28;20180;-85
2022/04/14 07:31:19;;;;;;;1.83;1.50;;;22.70;51.50;;;;;;5034705;28;20200;-83
2022/04/14 07:33:45;;;;;;;2.07;1.73;;;22.70;51.50;;;;;;5017569;28;20172;-83
2022/04/14 07:36:14;;;;;;;1.97;1.70;;;22.70;51.50;;;;;;5035094;28;20183;-83
2022/04/14 07:38:40;;;;;;;1.90;1.70;;;22.70;51.50;;;;;;5001512;28;20182;-82
2022/04/14 07:41:06;;;;;;;2.73;1.63;;;22.70;51.50;;;;;;5034240;28;20455;-83
2022/04/14 07:43:32;;;;;;;2.23;2.03;;;22.70;51.50;;;;;;5033347;28;20184;-83
2022/04/14 07:45:58;;;;;;;2.83;1.90;;;22.70;51.50;;;;;;5035158;28;20634;-83
2022/04/14 07:48:24;;;;;;;5.60;2.00;;;22.70;51.50;;;;;;5033500;28;20500;-83
2022/04/14 07:50:50;;;;;;;2.00;1.80;;;22.70;51.50;;;;;;5033414;28;20455;-83
2022/04/14 07:53:19;;;;;;;2.10;1.63;;;22.70;51.50;;;;;;5033239;28;20408;-84
2022/04/14 07:55:44;;;;;;;3.10;1.80;;;22.70;51.50;;;;;;5035089;28;20478;-84
2022/04/14 07:58:10;;;;;;;1.70;1.60;;;22.70;51.50;;;;;;5033807;28;20498;-83
2022/04/14 08:00:38;;;;;;;2.60;1.90;;;22.70;52.10;;;;;;5034591;28;20176;-84
2022/04/14 08:03:05;;;;;;;1.80;1.70;;;22.70;51.50;;;;;;5034372;28;20187;-84
2022/04/14 08:05:39;;;;;;;2.40;1.80;;;22.70;51.50;;;;;;5033254;28;20753;-83
2022/04/14 08:08:13;;;;;;;3.40;2.13;;;22.70;51.50;;;;;;5034077;28;20495;-84
2022/04/14 08:10:40;;;;;;;2.60;1.70;;;22.70;51.50;;;;;;5016441;28;20470;-83
2022/04/14 08:13:06;;;;;;;2.23;1.90;;;22.70;51.50;;;;;;5033737;28;20407;-84
2022/04/14 08:15:33;;;;;;;3.20;2.13;;;22.70;51.60;;;;;;5014081;28;20430;-85
2022/04/14 08:18:07;;;;;;;2.23;1.90;;;22.70;51.60;;;;;;5014625;28;20419;-89
2022/04/14 08:20:41;;;;;;;2.00;1.80;;;22.70;51.60;;;;;;5033510;28;20411;-84
2022/04/14 08:23:13;;;;;;;2.30;1.87;;;22.70;51.60;;;;;;5015868;28;20419;-84
2022/04/14 08:25:40;;;;;;;2.30;1.90;;;22.70;52.10;;;;;;5016954;28;20502;-84
2022/04/14 08:28:07;;;;;;;2.10;1.70;;;22.70;51.60;;;;;;5031680;28;20403;-83
2022/04/14 08:30:35;;;;;;;2.80;2.43;;;22.70;51.60;;;;;;5015746;28;20549;-84
2022/04/14 08:33:05;;;;;;;2.40;1.83;;;22.70;52.20;;;;;;5016887;28;20469;-84
2022/04/14 08:35:32;;;;;;;2.87;2.00;;;22.70;51.60;;;;;;5014543;28;20419;-84
2022/04/14 08:38:01;;;;;;;7.93;2.30;;;22.70;51.60;;;;;;5018084;28;20400;-83
2022/04/14 08:40:32;;;;;;;2.40;2.00;;;22.70;51.70;;;;;;5034649;28;20917;-84
2022/04/14 08:43:06;;;;;;;6.80;3.90;;;22.70;51.60;;;;;;5034917;28;20487;-84
2022/04/14 08:45:39;;;;;;;2.63;2.00;;;22.70;51.60;;;;;;5017449;28;20419;-83
2022/04/14 08:48:06;;;;;;;2.00;1.80;;;22.70;51.60;;;;;;5001122;28;20408;-84
2022/04/14 08:50:32;;;;;;;2.90;2.43;;;22.70;51.60;;;;;;5034693;28;20458;-84
2022/04/14 08:52:58;;;;;;;3.57;2.87;;;22.70;51.70;;;;;;5035176;28;20423;-83
2022/04/14 08:55:25;;;;;;;4.33;2.07;;;22.70;51.60;;;;;;5034452;28;20750;-83
2022/04/14 08:57:53;;;;;;;3.50;2.23;;;22.70;51.60;;;;;;5017441;28;20470;-84
2022/04/14 09:00:20;;;;;;;3.20;2.73;;;22.70;51.60;;;;;;5034354;28;20407;-84
2022/04/14 09:02:46;;;;;;;2.63;2.30;;;22.70;51.60;;;;;;5034004;28;20400;-83
2022/04/14 09:05:14;;;;;;;3.07;2.43;;;22.70;51.60;;;;;;5034147;28;20411;-83
2022/04/14 09:07:41;;;;;;;3.20;2.70;;;22.70;51.60;;;;;;5000242;28;20439;-82
2022/04/14 09:10:07;;;;;;;2.63;2.40;;;22.70;51.60;;;;;;5017149;28;20453;-82
2022/04/14 09:12:40;;;;;;;2.40;2.20;;;22.70;51.60;;;;;;5016858;28;20466;-83
2022/04/14 09:15:08;;;;;;;2.37;2.17;;;22.70;51.60;;;;;;5035127;28;20418;-83
2022/04/14 09:17:34;;;;;;;2.43;2.20;;;22.70;51.60;;;;;;5008924;28;20492;-83
2022/04/14 09:20:22;;;;;;;2.90;1.90;;;22.70;51.60;;;;;;5020586;28;20445;-83
2022/04/14 09:23:13;;;;;;;2.90;2.60;;;22.70;51.60;;;;;;5035659;28;20425;-83
2022/04/14 09:25:40;;;;;;;3.87;2.30;;;22.70;51.60;;;;;;5035426;28;20388;-83
2022/04/14 09:28:16;;;;;;;2.70;2.00;;;22.70;51.70;;;;;;5036022;28;20455;-82
2022/04/14 09:30:59;;;;;;;2.43;2.20;;;22.70;51.70;;;;;;5035207;28;20538;-83
2022/04/14 09:33:25;;;;;;;2.37;2.10;;;22.70;51.70;;;;;;5016928;28;20486;-83
2022/04/14 09:36:27;;;;;;;2.80;2.60;;;22.70;51.70;;;;;;5031401;28;20447;-83
2022/04/14 09:39:19;;;;;;;2.53;2.07;;;22.80;51.80;;;;;;4978645;28;20418;-83
2022/04/14 09:41:45;;;;;;;3.10;2.80;;;22.80;51.80;;;;;;4881808;29;20446;-83
2022/04/14 09:44:31;;;;;;;2.83;2.27;;;22.70;51.70;;;;;;4898064;29;20422;-83
2022/04/14 09:46:57;;;;;;;2.30;2.03;;;22.70;51.70;;;;;;4842165;29;20240;-83
2022/04/14 09:49:23;;;;;;;3.30;3.00;;;22.70;51.70;;;;;;4850745;29;20440;-83
2022/04/14 09:51:51;;;;;;;4.27;2.00;;;22.70;51.70;;;;;;4859938;29;20463;-83
2022/04/14 09:54:17;;;;;;;4.13;2.57;;;22.70;51.70;;;;;;4859328;29;20513;-83
2022/04/14 09:56:54;;;;;;;2.63;2.33;;;22.70;51.70;;;;;;4846749;29;20436;-83
2022/04/14 09:59:22;;;;;;;2.60;2.10;;;22.70;51.70;;;;;;4825659;29;20481;-83
2022/04/14 10:02:06;;;;;;;2.50;2.30;;;22.70;51.70;;;;;;4841121;29;20557;-83
2022/04/14 10:04:37;;;;;;;3.37;2.27;;;22.80;51.80;;;;;;4826695;29;20931;-83
2022/04/14 10:07:25;;;;;;;2.80;2.13;;;22.80;51.80;;;;;;4825488;29;20549;-83
2022/04/14 10:09:53;;;;;;;3.50;2.63;;;22.80;51.80;;;;;;4787124;30;20588;-83
2022/04/14 10:12:19;;;;;;;4.07;2.20;;;22.70;51.70;;;;;;4787011;30;20485;-83
2022/04/14 10:15:01;;;;;;;2.60;2.20;;;22.80;52.40;;;;;;4811633;29;20417;-82
2022/04/14 10:17:30;;;;;;;2.70;2.50;;;22.80;51.80;;;;;;4824217;29;20191;-84
2022/04/14 10:19:56;;;;;;;2.73;2.27;;;22.70;51.80;;;;;;4831047;29;20443;-83
2022/04/14 10:22:24;;;;;;;6.70;2.73;;;22.80;51.80;;;;;;4858882;29;20427;-83
2022/04/14 10:24:53;;;;;;;3.37;2.40;;;22.80;51.80;;;;;;4908308;29;20430;-82
2022/04/14 10:27:21;;;;;;;4.00;2.57;;;22.80;51.80;;;;;;4936866;29;20454;-82
2022/04/14 10:29:48;;;;;;;3.47;3.10;;;22.80;51.80;;;;;;4923377;29;20414;-83
2022/04/14 10:32:15;;;;;;;6.00;3.20;;;22.80;51.80;;;;;;4938771;29;20469;-82
2022/04/14 10:34:41;;;;;;;3.37;2.50;;;22.80;51.80;;;;;;4953101;29;20423;-83
2022/04/14 10:37:13;;;;;;;3.80;2.27;;;22.80;51.80;;;;;;4938608;29;20510;-82
2022/04/14 10:39:51;;;;;;;3.17;2.80;;;22.80;51.80;;;;;;4922032;29;20804;-82
2022/04/14 10:42:27;;;;;;;2.50;2.13;;;22.80;51.80;;;;;;4938888;29;20411;-82
2022/04/14 10:44:54;;;;;;;3.87;2.40;;;22.80;51.80;;;;;;4939277;29;20418;-82
2022/04/14 10:47:59;;;;;;;3.10;2.40;;;22.80;51.80;;;;;;4993465;28;20428;-82
2022/04/14 10:50:34;;;;;;;2.60;2.40;;;22.80;51.80;;;;;;5034670;28;20426;-82
2022/04/14 10:53:03;;;;;;;2.57;2.27;;;22.80;51.80;;;;;;5036132;28;20430;-83
2022/04/14 10:55:43;;;;;;;2.73;2.03;;;22.80;51.90;;;;;;5018824;28;20403;-83
2022/04/14 10:58:36;;;;;;;2.70;2.50;;;22.80;51.90;;;;;;5018838;28;20418;-83
2022/04/14 11:01:02;;;;;;;5.20;2.83;;;22.80;51.90;;;;;;5018486;28;20433;-83
2022/04/14 11:03:49;;;;;;;3.80;2.10;;;22.70;51.80;;;;;;5035979;28;20439;-83
2022/04/14 11:06:40;;;;;;;3.80;2.40;;;22.80;51.60;;;;;;5019117;28;20450;-84
2022/04/14 11:09:06;;;;;;;2.67;2.00;;;22.80;51.90;;;;;;5035615;28;20447;-84
2022/04/14 11:11:59;;;;;;;5.43;3.30;;;22.70;51.80;;;;;;5036057;28;20443;-83
2022/04/14 11:14:25;;;;;;;2.50;2.10;;;22.80;51.90;;;;;;5034839;28;20419;-83
2022/04/14 11:16:50;;;;;;;2.40;2.20;;;22.70;51.80;;;;;;5035990;28;20439;-83
2022/04/14 11:19:19;;;;;;;2.63;2.10;;;22.80;51.90;;;;;;5018243;28;20176;-83
2022/04/14 11:22:13;;;;;;;3.63;3.37;;;22.70;51.80;;;;;;5017668;28;20195;-84
2022/04/14 11:24:44;;;;;;;2.67;2.30;;;22.80;51.90;;;;;;5034046;28;20442;-83
2022/04/14 11:27:37;;;;;;;2.70;2.10;;;22.80;51.90;;;;;;5036383;28;20415;-83
2022/04/14 11:30:04;;;;;;;2.70;2.50;;;22.80;51.90;;;;;;4996757;28;20432;-83
2022/04/14 11:32:38;;;;;;;2.80;2.60;;;22.80;51.90;;;;;;4995131;28;20469;-82
2022/04/14 11:35:18;;;;;;;3.43;2.47;;;22.80;51.90;;;;;;4979712;28;20412;-83
2022/04/14 11:37:45;;;;;;;2.67;2.47;;;22.80;52.50;;;;;;4980814;28;20417;-83
2022/04/14 11:40:33;;;;;;;4.10;2.20;;;22.80;51.90;;;;;;4994735;28;20421;-83
2022/04/14 11:43:17;;;;;;;3.87;2.47;;;22.80;51.90;;;;;;4977396;29;20422;-83
2022/04/14 11:45:45;;;;;;;3.00;2.40;;;22.80;51.90;;;;;;4960450;29;20959;-83
2022/04/14 11:48:13;;;;;;;3.37;2.47;;;22.80;51.90;;;;;;4975061;29;20512;-83
2022/04/14 11:50:39;;;;;;;2.90;2.57;;;22.80;51.90;;;;;;4975061;29;20466;-82
2022/04/14 11:53:06;;;;;;;2.77;2.37;;;22.80;51.90;;;;;;4974602;29;20481;-84
2022/04/14 11:55:40;;;;;;;3.33;2.20;;;22.80;51.90;;;;;;4974510;29;20182;-82
2022/04/14 11:58:08;;;;;;;2.40;2.10;;;22.80;51.90;;;;;;4959395;29;20430;-83
2022/04/14 12:00:50;;;;;;;2.90;2.50;;;22.80;51.90;;;;;;4973619;28;20469;-83
2022/04/14 12:03:31;;;;;;;6.00;2.40;;;22.80;51.90;;;;;;4956649;29;20428;-83
2022/04/14 12:06:02;;;;;;;4.17;2.50;;;22.80;51.90;;;;;;4970490;29;20507;-82
2022/04/14 12:08:28;;;;;;;4.10;2.63;;;22.80;51.90;;;;;;4955486;29;20396;-83
2022/04/14 12:10:57;;;;;;;2.53;2.33;;;22.80;51.90;;;;;;4955210;29;20542;-83
2022/04/14 12:13:24;;;;;;;3.67;2.57;;;22.80;51.90;;;;;;4955569;29;20487;-84
2022/04/14 12:16:15;;;;;;;3.63;2.93;;;22.80;51.90;;;;;;4955850;29;20415;-83
2022/04/14 12:18:48;;;;;;;3.60;2.20;;;22.80;51.90;;;;;;4954870;29;20796;-83
2022/04/14 12:21:20;;;;;;;2.93;2.50;;;22.80;51.90;;;;;;5015336;28;20392;-83
2022/04/14 12:23:51;;;;;;;2.40;2.10;;;22.80;51.90;;;;;;4981270;28;20420;-82
2022/04/14 12:26:20;;;;;;;2.73;2.50;;;22.80;52.00;;;;;;5015804;28;20404;-82
2022/04/14 12:28:47;;;;;;;2.87;2.20;;;22.80;51.90;;;;;;5032449;28;20444;-83
2022/04/14 12:31:16;;;;;;;2.50;2.30;;;22.80;51.90;;;;;;5031323;28;20509;-82
2022/04/14 12:33:59;;;;;;;4.43;2.60;;;22.80;51.90;;;;;;4999051;28;20443;-83
2022/04/14 12:36:37;;;;;;;4.30;3.47;;;22.80;51.90;;;;;;5000147;28;20420;-83
2022/04/14 12:42:35;;;;;;;2.50;2.30;;;22.80;52.50;;;;;;4998765;28;20476;-83
2022/04/14 12:45:17;;;;;;;2.97;2.67;;;22.80;52.00;;;;;;4999637;28;20399;-83
2022/04/14 12:47:47;;;;;;;2.77;2.47;;;22.80;52.00;;;;;;5015350;28;20400;-83
2022/04/14 12:50:22;;;;;;;3.60;2.80;;;22.70;51.90;;;;;;4997765;28;20428;-83
2022/04/14 12:52:54;;;;;;;2.57;2.30;;;22.80;52.00;;;;;;5014522;28;20519;-83
2022/04/14 12:55:25;;;;;;;3.07;2.67;;;22.80;52.00;;;;;;5013439;28;20432;-83
2022/04/14 12:57:56;;;;;;;3.33;2.27;;;22.80;52.00;;;;;;5014268;28;20415;-83
2022/04/14 13:00:22;;;;;;;3.00;2.70;;;22.80;52.60;;;;;;4998851;28;20404;-82
2022/04/14 13:03:05;;;;;;;2.70;2.00;;;22.80;52.00;;;;;;5015558;28;20464;-83